Time;durP1;ratioP1;P1;durP2;ratioP2;P2;SDS_P1;SDS_P2;PMS_P1;PMS_P2;Temp;Humidity;BMP_temperature;BMP_pressure;BME280_temperature;BME280_humidity;BME280_pressure;Samples;Min_cycle;Max_cycle;Signal;HPM_P1;HPM_P2
2021/03/12 00:01:51;;;;;;;;;;;;;;;17.77;56.79;101631.50;5010975;28;1515;-59
2021/03/12 00:04:16;;;;;;;;;;;;;;;17.80;57.62;101623.25;4999580;28;1549;-59
2021/03/12 00:06:41;;;;;;;;;;;;;;;17.77;57.92;101632.34;5012235;28;1705;-59
2021/03/12 00:09:07;;;;;;;;;;;;;;;17.83;57.20;101634.63;5012541;28;1957;-59
2021/03/12 00:11:32;;;;;;;;;;;;;;;17.78;57.36;101626.00;5009183;28;1609;-59
2021/03/12 00:13:58;;;;;;;;;;;;;;;17.79;57.40;101627.75;5011641;28;1502;-59
2021/03/12 00:16:23;;;;;;;;;;;;;;;17.75;57.83;101630.75;5004476;28;1466;-59
2021/03/12 00:18:49;;;;;;;;;;;;;;;17.72;57.49;101613.06;5006922;28;1571;-58
2021/03/12 00:21:15;;;;;;;;;;;;;;;17.74;57.20;101612.97;5013657;28;1542;-59
2021/03/12 00:23:40;;;;;;;;;;;;;;;17.70;56.94;101621.19;5009928;28;1504;-59
2021/03/12 00:26:06;;;;;;;;;;;;;;;17.67;56.66;101612.53;5008949;28;1812;-59
2021/03/12 00:28:32;;;;;;;;;;;;;;;17.67;57.45;101608.03;5001799;28;1914;-58
2021/03/12 00:30:57;;;;;;;;;;;;;;;17.66;56.88;101600.13;5005691;28;1626;-59
2021/03/12 00:33:23;;;;;;;;;;;;;;;17.68;56.34;101595.50;5012519;28;1423;-59
2021/03/12 00:35:49;;;;;;;;;;;;;;;17.68;56.49;101583.00;5013414;28;1490;-59
2021/03/12 00:38:14;;;;;;;;;;;;;;;17.61;57.70;101573.69;5007175;28;1542;-59
2021/03/12 00:40:46;;;;;;;;;;;;;;;17.64;56.47;101559.25;5010060;28;1617;-59
2021/03/12 00:43:12;;;;;;;;;;;;;;;17.62;56.99;101545.13;5008736;28;1471;-59
2021/03/12 00:45:39;;;;;;;;;;;;;;;17.62;56.95;101542.44;5004225;28;1563;-58
2021/03/12 00:48:05;;;;;;;;;;;;;;;17.60;56.89;101544.38;5004298;28;1533;-58
2021/03/12 00:50:32;;;;;;;;;;;;;;;17.55;57.04;101544.72;5012090;28;1894;-59
2021/03/12 00:52:57;;;;;;;;;;;;;;;17.59;57.10;101542.69;5006582;28;1493;-59
2021/03/12 00:55:22;;;;;;;;;;;;;;;17.57;56.76;101548.13;5006426;28;1606;-59
2021/03/12 00:57:48;;;;;;;;;;;;;;;17.63;55.92;101541.50;5009763;28;1537;-59
2021/03/12 01:00:14;;;;;;;;;;;;;;;17.61;56.97;101530.06;5008925;28;1644;-59
2021/03/12 01:02:39;;;;;;;;;;;;;;;17.59;55.97;101514.13;5009196;28;1526;-59
2021/03/12 01:05:05;;;;;;;;;;;;;;;17.60;56.78;101509.63;5010413;28;1490;-58
2021/03/12 01:07:31;;;;;;;;;;;;;;;17.52;56.45;101512.81;5007638;28;1807;-59
2021/03/12 01:09:56;;;;;;;;;;;;;;;17.59;56.30;101497.22;5011029;28;1957;-58
2021/03/12 01:12:21;;;;;;;;;;;;;;;17.65;56.42;101497.63;5003000;28;1688;-59
2021/03/12 01:14:47;;;;;;;;;;;;;;;17.54;57.01;101491.31;5007735;28;1542;-59
2021/03/12 01:17:12;;;;;;;;;;;;;;;17.58;56.60;101506.19;5009633;28;1470;-59
2021/03/12 01:19:37;;;;;;;;;;;;;;;17.54;56.06;101496.69;5007658;28;1474;-60
2021/03/12 01:22:03;;;;;;;;;;;;;;;17.52;56.85;101490.59;5008510;28;1716;-59
2021/03/12 01:24:28;;;;;;;;;;;;;;;17.56;55.71;101490.25;5009503;28;1401;-59
2021/03/12 01:26:54;;;;;;;;;;;;;;;17.54;55.60;101472.59;5010398;28;1491;-59
2021/03/12 01:29:19;;;;;;;;;;;;;;;17.54;55.99;101456.56;5016070;28;1918;-59
2021/03/12 01:31:44;;;;;;;;;;;;;;;17.55;56.60;101445.75;5009176;28;1384;-59
2021/03/12 01:34:10;;;;;;;;;;;;;;;17.55;56.63;101445.75;5008618;28;971;-59
2021/03/12 01:36:35;;;;;;;;;;;;;;;17.51;55.49;101438.94;5013756;28;1712;-59
2021/03/12 01:39:00;;;;;;;;;;;;;;;17.56;56.16;101446.59;5011281;28;1450;-59
2021/03/12 01:41:26;;;;;;;;;;;;;;;17.52;56.25;101453.16;5004974;28;1491;-58
2021/03/12 01:43:51;;;;;;;;;;;;;;;17.50;55.80;101448.75;5012106;28;1522;-59
2021/03/12 01:46:17;;;;;;;;;;;;;;;17.52;56.53;101437.09;5005762;28;1313;-58
2021/03/12 01:48:42;;;;;;;;;;;;;;;17.48;56.02;101423.09;5010211;28;1959;-59
2021/03/12 01:51:08;;;;;;;;;;;;;;;17.46;56.27;101417.00;5004046;28;1538;-58
2021/03/12 01:53:34;;;;;;;;;;;;;;;17.53;56.36;101417.41;5013299;28;1586;-59
2021/03/12 01:56:00;;;;;;;;;;;;;;;17.43;55.56;101417.22;5012272;28;1384;-59
2021/03/12 01:58:26;;;;;;;;;;;;;;;17.48;56.08;101407.88;5008014;28;1721;-59
2021/03/12 02:00:52;;;;;;;;;;;;;;;17.50;55.19;101418.47;5008084;28;1535;-59
2021/03/12 02:03:19;;;;;;;;;;;;;;;17.44;55.74;101425.13;5013706;28;1622;-58
2021/03/12 02:05:45;;;;;;;;;;;;;;;17.40;55.74;101428.97;5013294;28;1553;-59
2021/03/12 02:08:10;;;;;;;;;;;;;;;17.47;55.44;101421.41;5014307;28;1645;-58
2021/03/12 02:10:36;;;;;;;;;;;;;;;17.49;55.82;101417.63;5011247;28;1940;-58
2021/03/12 02:13:20;;;;;;;;;;;;;;;17.47;55.17;101406.19;5009447;28;1359;-58
2021/03/12 02:15:47;;;;;;;;;;;;;;;17.46;55.75;101404.47;5010883;28;1303;-59
2021/03/12 02:18:20;;;;;;;;;;;;;;;17.45;55.88;101401.94;5006290;28;1448;-58
2021/03/12 02:20:55;;;;;;;;;;;;;;;17.42;56.15;101404.81;5012495;28;1478;-58
2021/03/12 02:23:40;;;;;;;;;;;;;;;17.47;55.45;101398.19;5005315;28;1681;-59
2021/03/12 02:26:25;;;;;;;;;;;;;;;17.47;54.70;101383.97;5011372;28;1854;-59
2021/03/12 02:28:52;;;;;;;;;;;;;;;17.50;55.51;101381.91;5000754;28;1918;-59
2021/03/12 02:31:17;;;;;;;;;;;;;;;17.48;55.26;101394.53;5010412;28;1685;-59
2021/03/12 02:33:44;;;;;;;;;;;;;;;17.53;55.76;101382.63;5008508;28;1721;-59
2021/03/12 02:36:09;;;;;;;;;;;;;;;17.47;54.89;101368.75;5009062;28;1483;-59
2021/03/12 02:38:35;;;;;;;;;;;;;;;17.44;55.53;101360.94;5012982;28;1295;-59
2021/03/12 02:41:02;;;;;;;;;;;;;;;17.41;54.58;101363.00;5009022;28;1468;-58
2021/03/12 02:43:28;;;;;;;;;;;;;;;17.37;54.88;101370.41;5011363;28;1644;-58
2021/03/12 02:45:54;;;;;;;;;;;;;;;17.38;55.22;101355.19;5010263;28;1448;-59
2021/03/12 02:48:19;;;;;;;;;;;;;;;17.32;56.30;101350.28;5011738;28;1598;-58
2021/03/12 02:50:46;;;;;;;;;;;;;;;17.36;55.86;101360.66;5011786;28;1878;-59
2021/03/12 02:53:12;;;;;;;;;;;;;;;17.42;55.48;101354.84;5011677;28;1494;-59
2021/03/12 02:55:37;;;;;;;;;;;;;;;17.50;55.97;101360.50;5011560;28;1481;-59
2021/03/12 02:58:04;;;;;;;;;;;;;;;17.48;54.86;101354.41;5010046;28;1363;-59
2021/03/12 03:02:58;;;;;;;;;;;;;;;17.47;56.11;101343.84;5008310;28;1462;-43
2021/03/12 03:05:30;;;;;;;;;;;;;;;17.46;55.99;101326.09;5009348;28;1745;-42
2021/03/12 03:07:58;;;;;;;;;;;;;;;17.42;55.99;101341.50;5018732;28;1544;-43
2021/03/12 03:10:24;;;;;;;;;;;;;;;17.44;55.88;101355.59;5025020;23;3492;-59
2021/03/12 03:12:51;;;;;;;;;;;;;;;17.44;55.26;101344.06;5010464;28;1658;-57
2021/03/12 03:15:18;;;;;;;;;;;;;;;17.49;55.45;101340.09;5015344;28;1666;-59
2021/03/12 03:17:44;;;;;;;;;;;;;;;17.41;55.01;101331.78;5013724;28;1308;-59
2021/03/12 03:20:11;;;;;;;;;;;;;;;17.41;54.98;101313.06;5013346;28;1472;-58
2021/03/12 03:22:37;;;;;;;;;;;;;;;17.39;54.86;101301.63;5012694;28;1404;-59
2021/03/12 03:25:02;;;;;;;;;;;;;;;17.39;55.24;101282.03;5013626;28;1618;-59
2021/03/12 03:27:29;;;;;;;;;;;;;;;17.37;55.59;101279.50;5013226;28;1594;-59
2021/03/12 03:29:54;;;;;;;;;;;;;;;17.36;55.45;101271.59;5012983;28;1989;-58
2021/03/12 03:32:20;;;;;;;;;;;;;;;17.41;55.23;101262.25;5013365;28;1486;-58
2021/03/12 03:34:45;;;;;;;;;;;;;;;17.33;56.06;101264.66;5015977;28;1468;-59
2021/03/12 03:37:11;;;;;;;;;;;;;;;17.35;54.77;101277.88;5012872;28;1634;-59
2021/03/12 03:39:38;;;;;;;;;;;;;;;17.40;54.14;101273.91;5011660;28;1575;-59
2021/03/12 03:42:04;;;;;;;;;;;;;;;17.40;54.58;101279.25;5013109;28;1467;-58
2021/03/12 03:44:33;;;;;;;;;;;;;;;17.35;55.02;101260.03;5014139;28;2100;-59
2021/03/12 03:47:00;;;;;;;;;;;;;;;17.32;54.17;101260.25;5016452;28;1502;-59
2021/03/12 03:49:27;;;;;;;;;;;;;;;17.32;54.73;101278.97;5011726;28;1898;-58
2021/03/12 03:51:53;;;;;;;;;;;;;;;17.22;55.38;101261.91;5027792;28;1478;-58
2021/03/12 03:54:21;;;;;;;;;;;;;;;17.12;56.98;101263.53;5012796;28;1546;-58
2021/03/12 03:56:48;;;;;;;;;;;;;;;17.03;56.10;101260.56;5013029;28;1479;-58
2021/03/12 03:59:14;;;;;;;;;;;;;;;17.00;56.33;101267.94;5013322;28;1387;-58
2021/03/12 04:01:39;;;;;;;;;;;;;;;16.96;57.13;101250.44;5011821;28;1460;-58
2021/03/12 04:04:06;;;;;;;;;;;;;;;16.92;57.59;101249.78;5011615;28;1681;-58
2021/03/12 04:06:32;;;;;;;;;;;;;;;16.92;57.16;101257.81;5011808;28;1605;-58
2021/03/12 04:08:59;;;;;;;;;;;;;;;16.94;57.43;101271.91;5006646;28;1905;-58
2021/03/12 04:11:25;;;;;;;;;;;;;;;16.88;58.06;101261.66;5008788;28;1486;-58
2021/03/12 04:13:51;;;;;;;;;;;;;;;16.90;58.16;101268.59;5025556;28;1619;-58
2021/03/12 04:16:16;;;;;;;;;;;;;;;16.89;58.81;101272.25;5026375;28;1838;-58
2021/03/12 04:18:44;;;;;;;;;;;;;;;16.87;58.88;101251.91;5025604;28;1351;-58
2021/03/12 04:21:09;;;;;;;;;;;;;;;16.85;58.15;101264.53;5020247;28;1380;-59
2021/03/12 04:23:35;;;;;;;;;;;;;;;16.86;58.39;101271.59;5031276;28;1304;-58
2021/03/12 04:26:01;;;;;;;;;;;;;;;16.85;59.01;101268.09;5031583;28;1489;-58
2021/03/12 04:28:26;;;;;;;;;;;;;;;16.88;58.14;101275.88;5025887;28;1630;-58
2021/03/12 04:30:52;;;;;;;;;;;;;;;16.85;58.01;101277.88;5030320;28;1910;-58
2021/03/12 04:33:19;;;;;;;;;;;;;;;16.83;58.00;101277.16;5024884;28;1358;-58
2021/03/12 04:35:44;;;;;;;;;;;;;;;16.82;58.21;101267.44;5021940;28;1618;-58
2021/03/12 04:38:10;;;;;;;;;;;;;;;16.82;58.10;101270.13;5028901;28;1555;-59
2021/03/12 04:40:36;;;;;;;;;;;;;;;16.79;58.57;101272.97;5029891;28;1549;-58
2021/03/12 04:43:02;;;;;;;;;;;;;;;16.76;59.47;101278.53;5031872;28;1558;-58
2021/03/12 04:45:28;;;;;;;;;;;;;;;16.74;58.70;101272.44;5031320;28;1618;-58
2021/03/12 04:47:56;;;;;;;;;;;;;;;16.72;58.94;101285.91;5031635;28;1597;-58
2021/03/12 04:50:23;;;;;;;;;;;;;;;16.74;58.63;101272.44;5028299;28;1914;-59
2021/03/12 04:52:48;;;;;;;;;;;;;;;16.74;58.85;101267.94;5035435;28;1356;-58
2021/03/12 04:55:14;;;;;;;;;;;;;;;16.77;58.31;101272.22;5034955;28;1594;-59
2021/03/12 04:57:40;;;;;;;;;;;;;;;16.75;58.58;101258.13;5035520;28;1255;-58
2021/03/12 05:00:06;;;;;;;;;;;;;;;16.74;59.61;101269.78;5035445;28;1541;-59
2021/03/12 05:02:32;;;;;;;;;;;;;;;16.72;58.83;101266.34;5031359;28;1456;-59
2021/03/12 05:04:58;;;;;;;;;;;;;;;16.74;58.33;101259.94;5034891;28;1753;-59
2021/03/12 05:07:24;;;;;;;;;;;;;;;16.72;59.80;101255.69;5033779;28;1494;-59
2021/03/12 05:09:50;;;;;;;;;;;;;;;16.73;59.54;101268.06;5034768;28;1979;-59
2021/03/12 05:12:15;;;;;;;;;;;;;;;16.72;58.99;101255.69;5029757;28;1476;-58
2021/03/12 05:14:40;;;;;;;;;;;;;;;16.72;59.36;101271.69;5034971;28;1562;-58
2021/03/12 05:17:06;;;;;;;;;;;;;;;16.70;59.89;101280.66;5033117;28;1610;-59
2021/03/12 05:19:31;;;;;;;;;;;;;;;16.68;59.22;101265.72;5034668;28;1629;-58
2021/03/12 05:21:57;;;;;;;;;;;;;;;16.66;59.79;101257.81;5021271;28;1701;-59
2021/03/12 05:24:22;;;;;;;;;;;;;;;16.67;59.80;101248.84;5035154;28;1463;-59
2021/03/12 05:26:48;;;;;;;;;;;;;;;16.65;59.81;101248.09;5034159;28;1471;-59
2021/03/12 05:29:13;;;;;;;;;;;;;;;16.68;59.26;101271.06;5034422;28;1910;-58
2021/03/12 05:31:39;;;;;;;;;;;;;;;16.64;59.14;101257.06;5035461;28;1319;-58
2021/03/12 05:34:04;;;;;;;;;;;;;;;16.64;59.65;101267.75;5034130;28;1371;-59
2021/03/12 05:36:30;;;;;;;;;;;;;;;16.63;59.11;101247.34;5033117;28;1657;-58
2021/03/12 05:38:55;;;;;;;;;;;;;;;16.64;60.02;101245.53;5032677;28;1529;-58
2021/03/12 05:41:21;;;;;;;;;;;;;;;16.65;60.08;101244.56;5032338;28;1594;-58
2021/03/12 05:43:47;;;;;;;;;;;;;;;16.66;60.00;101252.47;5033935;28;1578;-58
2021/03/12 05:46:14;;;;;;;;;;;;;;;16.65;60.05;101257.91;5028841;28;1682;-58
2021/03/12 05:48:40;;;;;;;;;;;;;;;16.67;59.02;101264.88;5021590;28;1882;-59
2021/03/12 05:51:05;;;;;;;;;;;;;;;16.74;61.17;101275.13;5017905;28;1367;-59
2021/03/12 05:53:31;;;;;;;;;;;;;;;16.77;61.05;101280.22;5029088;28;1403;-58
2021/03/12 05:55:56;;;;;;;;;;;;;;;16.75;61.27;101279.47;5027109;28;1511;-58
2021/03/12 05:58:22;;;;;;;;;;;;;;;16.51;62.45;101280.22;5028470;28;1606;-58
2021/03/12 06:00:48;;;;;;;;;;;;;;;16.63;62.21;101294.53;5029989;28;1448;-59
2021/03/12 06:03:14;;;;;;;;;;;;;;;16.73;60.25;101292.09;5028359;28;1447;-58
2021/03/12 06:05:42;;;;;;;;;;;;;;;16.69;62.45;101308.34;5029040;28;1688;-60
2021/03/12 06:08:07;;;;;;;;;;;;;;;16.75;62.12;101330.22;5028398;28;1713;-58
2021/03/12 06:10:33;;;;;;;;;;;;;;;16.74;62.80;101328.53;5033046;28;1965;-59
2021/03/12 06:12:58;;;;;;;;;;;;;;;16.73;61.59;101329.47;5030418;28;1367;-58
2021/03/12 06:15:34;;;;;;;;;;;;;;;16.68;62.24;101329.81;5029569;28;1700;-59
2021/03/12 06:18:11;;;;;;;;;;;;;;;16.68;61.95;101308.44;5033940;28;1516;-60
2021/03/12 06:20:37;;;;;;;;;;;;;;;16.66;61.48;101316.56;5035280;28;1268;-59
2021/03/12 06:23:02;;;;;;;;;;;;;;;16.62;61.15;101309.72;5033823;28;1505;-59
2021/03/12 06:25:31;;;;;;;;;;;;;;;16.62;61.37;101319.56;5034447;28;1542;-59
2021/03/12 06:28:11;;;;;;;;;;;;;;;16.66;60.98;101342.41;5033593;28;1598;-59
2021/03/12 06:30:36;;;;;;;;;;;;;;;16.66;61.76;101347.75;5033914;28;1977;-60
2021/03/12 06:33:02;;;;;;;;;;;;;;;16.64;61.62;101349.66;5033602;28;1389;-59
2021/03/12 06:35:34;;;;;;;;;;;;;;;16.70;62.15;101341.22;5035069;28;824;-60
2021/03/12 06:38:06;;;;;;;;;;;;;;;16.84;62.37;101330.47;5033705;28;1359;-59
2021/03/12 06:40:31;;;;;;;;;;;;;;;16.95;60.96;101337.75;5028573;28;1553;-59
2021/03/12 06:43:01;;;;;;;;;;;;;;;17.04;61.09;101323.72;5028030;28;1574;-59
2021/03/12 06:45:26;;;;;;;;;;;;;;;17.16;61.08;101311.31;5028288;28;1599;-59
2021/03/12 06:47:52;;;;;;;;;;;;;;;17.33;60.45;101320.78;5031203;28;1660;-59
2021/03/12 06:50:18;;;;;;;;;;;;;;;17.41;60.84;101323.75;5028830;28;1889;-60
2021/03/12 06:52:43;;;;;;;;;;;;;;;17.73;60.14;101315.19;5027320;28;1512;-60
2021/03/12 06:55:09;;;;;;;;;;;;;;;17.96;58.79;101318.00;5031509;28;1637;-59
2021/03/12 06:57:35;;;;;;;;;;;;;;;18.00;59.33;101303.41;5032584;28;1475;-59
2021/03/12 07:00:01;;;;;;;;;;;;;;;18.05;59.72;101302.09;5034883;28;745;-59
2021/03/12 07:02:30;;;;;;;;;;;;;;;18.10;60.26;101288.34;5033304;28;1650;-60
2021/03/12 07:04:56;;;;;;;;;;;;;;;18.21;59.94;101285.72;5033261;28;1535;-59
2021/03/12 07:07:40;;;;;;;;;;;;;;;18.23;59.24;101294.50;5033141;28;1248;-59
2021/03/12 07:10:06;;;;;;;;;;;;;;;18.38;58.95;101308.53;5033068;28;1945;-59
2021/03/12 07:12:43;;;;;;;;;;;;;;;18.58;58.19;101309.66;5032719;28;1216;-59
2021/03/12 07:15:09;;;;;;;;;;;;;;;18.60;58.26;101294.34;5026205;28;1396;-58
2021/03/12 07:17:35;;;;;;;;;;;;;;;18.64;58.72;101303.84;5033112;28;1713;-59
2021/03/12 07:20:00;;;;;;;;;;;;;;;18.61;59.32;101309.41;5034215;28;848;-58
2021/03/12 07:22:28;;;;;;;;;;;;;;;18.72;58.85;101334.50;5032630;28;1380;-60
2021/03/12 07:24:54;;;;;;;;;;;;;;;18.74;59.01;101329.88;5033274;28;1526;-59
2021/03/12 07:27:20;;;;;;;;;;;;;;;18.77;58.63;101345.72;5032738;28;1617;-59
2021/03/12 07:29:46;;;;;;;;;;;;;;;18.86;59.31;101328.94;5032576;28;1975;-60
2021/03/12 07:32:13;;;;;;;;;;;;;;;18.79;58.96;101322.34;5032509;28;1255;-58
2021/03/12 07:34:39;;;;;;;;;;;;;;;18.82;59.01;101335.53;5029612;28;1102;-59
2021/03/12 07:37:06;;;;;;;;;;;;;;;18.86;58.92;101343.22;5032979;28;1562;-60
2021/03/12 07:39:34;;;;;;;;;;;;;;;18.83;59.00;101353.31;5024431;28;1630;-59
2021/03/12 07:42:00;;;;;;;;;;;;;;;18.72;59.59;101340.75;5031923;28;1209;-57
2021/03/12 07:44:26;;;;;;;;;;;;;;;18.76;59.90;101344.00;5032731;28;1624;-58
2021/03/12 07:46:52;;;;;;;;;;;;;;;18.81;59.97;101349.91;5032041;28;1469;-56
2021/03/12 07:49:32;;;;;;;;;;;;;;;18.84;59.75;101346.97;5033572;28;1890;-58
2021/03/12 07:51:58;;;;;;;;;;;;;;;18.80;59.71;101372.31;5032581;28;1665;-57
2021/03/12 07:54:44;;;;;;;;;;;;;;;18.68;60.18;101349.97;5032404;28;1268;-56
2021/03/12 07:57:10;;;;;;;;;;;;;;;18.65;60.38;101368.97;5027064;28;1503;-57
2021/03/12 07:59:45;;;;;;;;;;;;;;;18.58;60.44;101368.59;5023582;28;1422;-58
2021/03/12 08:02:11;;;;;;;;;;;;;;;18.54;59.93;101361.75;5026562;28;1656;-58
2021/03/12 08:04:36;;;;;;;;;;;;;;;18.50;60.43;101352.22;5022067;28;1377;-57
2021/03/12 08:07:22;;;;;;;;;;;;;;;18.51;59.80;101343.25;5019910;28;1445;-58
2021/03/12 08:09:48;;;;;;;;;;;;;;;18.50;60.13;101338.84;5021868;28;1914;-58
2021/03/12 08:12:29;;;;;;;;;;;;;;;18.50;59.81;101328.13;5024337;28;1380;-58
2021/03/12 08:15:10;;;;;;;;;;;;;;;18.48;60.31;101320.25;5027595;28;1430;-58
2021/03/12 08:17:36;;;;;;;;;;;;;;;18.47;60.06;101317.66;5023192;28;1397;-58
2021/03/12 08:20:21;;;;;;;;;;;;;;;18.55;59.85;101331.31;5018362;28;1067;-59
2021/03/12 08:22:46;;;;;;;;;;;;;;;18.54;60.14;101332.28;5020877;28;1396;-59
2021/03/12 08:25:12;;;;;;;;;;;;;;;18.60;60.08;101317.56;5020935;28;1309;-57
2021/03/12 08:27:48;;;;;;;;;;;;;;;18.57;60.09;101315.13;5018462;28;1439;-57
2021/03/12 08:30:33;;;;;;;;;;;;;;;18.59;60.08;101324.75;5024786;28;1977;-59
2021/03/12 08:32:59;;;;;;;;;;;;;;;18.57;60.21;101324.03;5021865;28;1675;-56
2021/03/12 08:35:34;;;;;;;;;;;;;;;18.53;60.12;101301.13;5017651;28;1361;-58
2021/03/12 08:38:03;;;;;;;;;;;;;;;18.53;59.88;101306.47;5023116;28;1401;-56
2021/03/12 08:40:29;;;;;;;;;;;;;;;18.57;60.65;101297.22;5025559;28;1543;-54
2021/03/12 08:42:55;;;;;;;;;;;;;;;18.52;59.97;101288.69;5028487;28;1684;-55
2021/03/12 08:45:33;;;;;;;;;;;;;;;18.53;59.67;101281.53;5027629;28;1575;-57
2021/03/12 08:48:18;;;;;;;;;;;;;;;18.55;60.22;101288.47;5028123;28;1545;-59
2021/03/12 08:51:03;;;;;;;;;;;;;;;18.54;60.34;101294.78;5024426;28;1951;-56
2021/03/12 08:53:30;;;;;;;;;;;;;;;18.49;60.18;101294.31;5025412;28;1568;-58
2021/03/12 08:55:56;;;;;;;;;;;;;;;18.53;60.47;101290.41;5026675;28;1864;-56
2021/03/12 08:58:23;;;;;;;;;;;;;;;18.50;60.13;101274.56;5031239;28;1547;-57
2021/03/12 09:00:52;;;;;;;;;;;;;;;18.44;60.24;101272.38;5026820;28;1585;-56
2021/03/12 09:03:20;;;;;;;;;;;;;;;18.46;60.52;101292.72;5026407;28;1335;-58
2021/03/12 09:05:47;;;;;;;;;;;;;;;18.52;60.77;101274.47;5031581;28;1241;-54
2021/03/12 09:08:13;;;;;;;;;;;;;;;18.55;60.06;101277.75;5028471;28;1473;-59
2021/03/12 09:10:39;;;;;;;;;;;;;;;18.59;59.66;101262.31;5031325;28;1965;-56
2021/03/12 09:13:11;;;;;;;;;;;;;;;18.56;60.20;101258.03;5029634;28;1460;-57
2021/03/12 09:15:38;;;;;;;;;;;;;;;18.59;60.05;101257.78;5028728;28;1512;-57
2021/03/12 09:18:03;;;;;;;;;;;;;;;18.69;60.82;101255.25;5029056;28;1716;-56
2021/03/12 09:20:28;;;;;;;;;;;;;;;18.68;60.70;101254.41;5027584;28;1564;-56
2021/03/12 09:22:55;;;;;;;;;;;;;;;18.65;61.13;101261.81;5029330;28;1717;-56
2021/03/12 09:25:24;;;;;;;;;;;;;;;18.58;61.16;101242.72;5029564;28;1493;-58
2021/03/12 09:28:08;;;;;;;;;;;;;;;18.62;61.34;101236.13;5026327;28;1415;-60
2021/03/12 09:30:38;;;;;;;;;;;;;;;18.76;60.30;101226.13;5024452;28;1965;-56
2021/03/12 09:33:04;;;;;;;;;;;;;;;18.73;61.86;101223.72;5027631;28;1342;-56
2021/03/12 09:35:30;;;;;;;;;;;;;;;18.86;60.45;101243.19;5030306;28;1373;-58
2021/03/12 09:37:57;;;;;;;;;;;;;;;18.87;60.99;101212.75;5029280;28;1681;-56
2021/03/12 09:40:26;;;;;;;;;;;;;;;18.88;60.31;101234.06;5034503;28;1566;-61
2021/03/12 09:42:52;;;;;;;;;;;;;;;18.82;61.30;101223.84;5035482;28;1530;-58
2021/03/12 09:45:22;;;;;;;;;;;;;;;18.74;61.90;101217.34;5025667;28;1252;-58
2021/03/12 09:47:48;;;;;;;;;;;;;;;18.84;61.72;101223.72;5035849;28;1558;-58
2021/03/12 09:50:14;;;;;;;;;;;;;;;18.86;61.28;101244.06;5036974;28;1943;-57
2021/03/12 09:52:40;;;;;;;;;;;;;;;18.83;61.29;101248.81;5034562;28;1682;-57
2021/03/12 09:55:06;;;;;;;;;;;;;;;18.66;61.51;101218.84;5034429;28;1482;-58
2021/03/12 09:57:31;;;;;;;;;;;;;;;18.73;61.16;101239.78;5035146;28;1419;-57
2021/03/12 09:59:56;;;;;;;;;;;;;;;18.67;61.28;101254.50;5023304;28;1355;-57
2021/03/12 10:02:22;;;;;;;;;;;;;;;18.65;61.57;101251.94;5035157;28;1590;-56
2021/03/12 10:04:58;;;;;;;;;;;;;;;18.60;61.80;101248.78;5036906;28;764;-57
2021/03/12 10:07:23;;;;;;;;;;;;;;;18.61;61.63;101245.13;5035151;28;1473;-57
2021/03/12 10:09:49;;;;;;;;;;;;;;;18.57;62.04;101243.66;5031439;28;1894;-57
2021/03/12 10:12:18;;;;;;;;;;;;;;;18.61;61.63;101247.81;5034598;28;1463;-59
2021/03/12 10:14:51;;;;;;;;;;;;;;;18.59;61.98;101241.72;5034504;28;1376;-58
2021/03/12 10:17:25;;;;;;;;;;;;;;;18.62;61.92;101237.94;5034724;28;1384;-57
2021/03/12 10:19:52;;;;;;;;;;;;;;;18.62;61.60;101230.78;5033938;28;1454;-57
2021/03/12 10:22:17;;;;;;;;;;;;;;;18.68;61.75;101229.41;5032243;28;1430;-59
2021/03/12 10:24:47;;;;;;;;;;;;;;;18.72;62.30;101208.59;5032827;28;1663;-59
2021/03/12 10:27:19;;;;;;;;;;;;;;;18.64;61.87;101218.09;5033147;28;1478;-57
2021/03/12 10:29:44;;;;;;;;;;;;;;;18.65;61.77;101230.50;5023728;28;1910;-59
2021/03/12 10:32:10;;;;;;;;;;;;;;;18.56;62.26;101208.97;5035269;28;1643;-58
2021/03/12 10:34:45;;;;;;;;;;;;;;;18.57;61.63;101216.88;5036587;28;883;-58
2021/03/12 10:37:15;;;;;;;;;;;;;;;18.57;61.61;101219.56;5035390;28;1467;-59
2021/03/12 10:39:41;;;;;;;;;;;;;;;18.54;61.61;101203.72;5035480;28;1393;-59
2021/03/12 10:42:07;;;;;;;;;;;;;;;18.58;61.87;101210.56;5035226;28;1530;-58
2021/03/12 10:44:55;;;;;;;;;;;;;;;18.56;61.53;101208.97;5032683;28;1523;-57
2021/03/12 10:47:21;;;;;;;;;;;;;;;18.58;61.62;101194.50;5033872;28;1379;-58
2021/03/12 10:49:46;;;;;;;;;;;;;;;18.61;61.86;101191.56;5036362;28;1960;-58
2021/03/12 10:52:26;;;;;;;;;;;;;;;18.60;62.33;101189.88;5029215;28;1384;-58
2021/03/12 10:54:51;;;;;;;;;;;;;;;18.62;61.84;101195.94;5034068;28;1450;-57
2021/03/12 10:57:17;;;;;;;;;;;;;;;18.57;62.88;101206.16;5033288;28;1319;-58
2021/03/12 10:59:55;;;;;;;;;;;;;;;18.56;62.36;101185.72;5031930;28;1336;-57
2021/03/12 11:02:30;;;;;;;;;;;;;;;18.58;62.45;101209.69;5026288;28;1388;-57
2021/03/12 11:04:56;;;;;;;;;;;;;;;18.57;61.74;101192.78;5027635;28;1207;-57
2021/03/12 11:07:21;;;;;;;;;;;;;;;18.74;61.85;101190.56;5034682;28;1200;-58
2021/03/12 11:09:46;;;;;;;;;;;;;;;18.69;61.68;101167.69;5030472;28;1906;-56
2021/03/12 11:12:12;;;;;;;;;;;;;;;18.76;61.40;101172.53;5029791;28;1444;-57
2021/03/12 11:14:37;;;;;;;;;;;;;;;18.81;61.37;101170.38;5028036;28;1388;-58
2021/03/12 11:17:03;;;;;;;;;;;;;;;18.77;61.60;101169.75;5028238;28;1583;-56
2021/03/12 11:19:29;;;;;;;;;;;;;;;18.79;61.60;101164.25;5006878;28;1341;-54
2021/03/12 11:21:54;;;;;;;;;;;;;;;18.76;61.73;101161.81;5030820;28;1717;-55
2021/03/12 11:24:20;;;;;;;;;;;;;;;18.77;61.75;101147.47;5025884;28;1453;-56
2021/03/12 11:26:45;;;;;;;;;;;;;;;18.73;61.64;101149.53;5029764;28;1368;-55
2021/03/12 11:29:10;;;;;;;;;;;;;;;18.72;62.13;101122.88;5026932;28;1914;-56
2021/03/12 11:31:36;;;;;;;;;;;;;;;18.72;61.96;101117.50;5032170;28;1221;-56
2021/03/12 11:34:02;;;;;;;;;;;;;;;18.77;61.63;101126.03;5022586;28;1246;-56
2021/03/12 11:36:28;;;;;;;;;;;;;;;18.73;60.63;101111.19;5017741;28;1288;-55
2021/03/12 11:38:53;;;;;;;;;;;;;;;18.72;60.22;101101.44;5027227;28;1329;-55
2021/03/12 11:41:18;;;;;;;;;;;;;;;18.64;59.86;101089.53;5024077;28;1079;-55
2021/03/12 11:43:44;;;;;;;;;;;;;;;18.65;59.77;101080.50;5025476;28;1690;-56
2021/03/12 11:46:09;;;;;;;;;;;;;;;18.67;60.32;101089.28;5030951;28;1516;-56
2021/03/12 11:48:35;;;;;;;;;;;;;;;18.59;60.70;101089.03;5020508;28;1736;-56
2021/03/12 11:51:00;;;;;;;;;;;;;;;18.67;61.85;101093.78;5019127;28;1948;-55
2021/03/12 11:53:26;;;;;;;;;;;;;;;18.73;61.71;101087.06;5024053;28;1726;-55
2021/03/12 11:55:51;;;;;;;;;;;;;;;18.68;62.41;101085.63;5023157;28;1726;-56
2021/03/12 11:58:17;;;;;;;;;;;;;;;18.73;62.12;101071.84;5024771;28;1435;-56
2021/03/12 12:00:42;;;;;;;;;;;;;;;18.77;62.47;101072.44;5025480;28;1527;-56
2021/03/12 12:03:08;;;;;;;;;;;;;;;18.83;62.50;101071.97;5030503;28;1562;-54
2021/03/12 12:05:33;;;;;;;;;;;;;;;19.01;62.04;101064.22;5021774;28;1415;-56
2021/03/12 12:07:59;;;;;;;;;;;;;;;18.93;62.38;101064.88;5024376;28;1388;-56
2021/03/12 12:10:24;;;;;;;;;;;;;;;18.82;62.29;101071.13;5029756;28;1898;-56
2021/03/12 12:12:55;;;;;;;;;;;;;;;18.73;62.44;101060.28;5025054;28;1499;-56
2021/03/12 12:15:20;;;;;;;;;;;;;;;18.69;63.03;101063.19;5023333;28;1417;-56
2021/03/12 12:17:46;;;;;;;;;;;;;;;18.65;62.39;101051.03;5021409;28;1559;-56
2021/03/12 12:20:12;;;;;;;;;;;;;;;18.68;63.35;101053.47;5026693;28;1490;-59
2021/03/12 12:22:37;;;;;;;;;;;;;;;18.67;62.58;101062.47;5026051;28;1508;-59
2021/03/12 12:25:03;;;;;;;;;;;;;;;18.72;62.73;101058.56;5022277;28;1338;-59
2021/03/12 12:27:28;;;;;;;;;;;;;;;18.73;62.74;101050.41;5026581;28;1630;-60
2021/03/12 12:29:54;;;;;;;;;;;;;;;18.83;62.60;101055.91;5030813;28;1918;-59
2021/03/12 12:32:19;;;;;;;;;;;;;;;19.02;61.84;101034.63;5026710;28;1507;-57
2021/03/12 12:34:45;;;;;;;;;;;;;;;18.98;62.42;101049.25;5030260;28;1803;-60
2021/03/12 12:37:10;;;;;;;;;;;;;;;18.88;62.47;101045.66;5030240;28;1598;-59
2021/03/12 12:39:35;;;;;;;;;;;;;;;18.88;62.74;101041.13;5028832;28;1767;-59
2021/03/12 12:42:01;;;;;;;;;;;;;;;18.85;62.92;101032.50;5029968;28;1361;-59
2021/03/12 12:44:26;;;;;;;;;;;;;;;18.80;63.12;101038.25;5031759;28;1611;-57
2021/03/12 12:46:52;;;;;;;;;;;;;;;18.82;63.18;101038.09;5027276;28;1479;-59
2021/03/12 12:49:19;;;;;;;;;;;;;;;18.78;63.20;101042.84;5031561;28;1943;-59
2021/03/12 12:51:44;;;;;;;;;;;;;;;18.75;63.36;101043.09;5029542;28;1463;-59